Terminal Aerodrome Forecast
Issued by NWS Tiyan, Guam

Home | Current Version | Previous Version | Text Only | Print | Product List | Glossary On
Versions: 1 2 3 4 5 6 7 8 9 10 11 12 13 14 15 16 17 18 19 20 21 22 23 24 25 26 27 28 29 30 31 32 33 34 35 36 37
000
FTPQ31 PGUM 030749 AAW
TAFGUM
TAF AMD
PGUM 030749Z 0308/0412 10012G20KT P6SM VCSH SCT012 BKN050 OVC100
      TEMPO 0308/0310 6SM -SHRA BKN030
     FM031000 11011KT P6SM VCSH SCT015 SCT040 BKN120
     FM040100 12013G20KT P6SM VCSH SCT020 SCT030 BKN120=

USA.gov is the U.S. government's official web portal to all federal, state and local government web resources and services.